createdAt,value
2022-11-04T00:01:55.291Z,19.48
2022-11-04T00:04:24.553Z,25.70
2022-11-04T00:06:53.624Z,26.50
2022-11-04T00:09:22.349Z,20.48
2022-11-04T00:12:08.648Z,20.10
2022-11-04T00:14:36.785Z,26.40
2022-11-04T00:17:19.820Z,19.67
2022-11-04T00:20:06.211Z,20.75
2022-11-04T00:22:53.492Z,28.25
2022-11-04T00:30:57.079Z,21.63
2022-11-04T00:33:27.259Z,22.48
2022-11-04T00:35:57.007Z,28.17
2022-11-04T00:38:26.095Z,24.85
2022-11-04T00:40:53.312Z,21.65
2022-11-04T00:43:20.340Z,19.38
2022-11-04T00:45:47.400Z,22.77
2022-11-04T00:48:14.391Z,26.75
2022-11-04T00:50:42.317Z,19.83
2022-11-04T00:53:09.592Z,23.42
2022-11-04T00:55:38.264Z,23.08
2022-11-04T00:58:05.238Z,19.42
2022-11-04T01:00:32.250Z,22.10
2022-11-04T01:03:01.028Z,23.38
2022-11-04T01:05:27.995Z,22.13
2022-11-04T01:07:55.108Z,26.73
2022-11-04T01:10:22.130Z,24.63
2022-11-04T01:12:52.272Z,24.42
2022-11-04T01:15:19.521Z,20.95
2022-11-04T01:17:46.481Z,20.88
2022-11-04T01:20:14.025Z,22.30
2022-11-04T01:22:41.051Z,19.65
2022-11-04T01:25:09.382Z,20.38
2022-11-04T01:27:36.409Z,28.48
2022-11-04T01:30:06.125Z,25.20
2022-11-04T01:32:33.175Z,23.27
2022-11-04T01:35:00.230Z,22.77
2022-11-04T01:37:27.225Z,31.52
2022-11-04T01:39:54.146Z,21.00
2022-11-04T01:42:21.850Z,21.75
2022-11-04T01:44:59.829Z,21.27
2022-11-04T01:47:36.904Z,19.60
2022-11-04T01:50:08.893Z,24.58
2022-11-04T01:52:41.620Z,21.25
2022-11-04T01:55:13.204Z,24.80
2022-11-04T01:57:42.977Z,22.98
2022-11-04T02:00:11.027Z,18.67
2022-11-04T02:02:50.990Z,23.35
2022-11-04T02:05:18.834Z,23.40
2022-11-04T02:07:49.821Z,20.50
2022-11-04T02:10:17.360Z,20.88
2022-11-04T02:12:50.575Z,18.45
2022-11-04T02:15:23.685Z,22.63
2022-11-04T02:18:23.640Z,20.02
2022-11-04T02:21:07.143Z,20.77
2022-11-04T02:24:04.827Z,20.02
2022-11-04T02:27:04.208Z,25.88
2022-11-04T02:29:46.445Z,25.77
2022-11-04T02:32:20.193Z,19.90
2022-11-04T02:34:56.084Z,19.67
2022-11-04T02:37:31.934Z,23.00
2022-11-04T02:40:13.176Z,24.50
2022-11-04T02:42:48.385Z,19.90
2022-11-04T02:45:19.701Z,23.15
2022-11-04T02:47:52.046Z,23.98
2022-11-04T02:50:25.633Z,21.00
2022-11-04T02:52:59.790Z,27.35
2022-11-04T02:55:31.034Z,22.27
2022-11-04T02:58:00.571Z,19.80
2022-11-04T03:00:29.564Z,21.55
2022-11-04T03:03:01.774Z,24.92
2022-11-04T03:05:32.946Z,20.38
2022-11-04T03:08:06.651Z,21.33
2022-11-04T03:10:36.898Z,18.58
2022-11-04T03:13:09.224Z,22.83
2022-11-04T03:15:40.324Z,21.48
2022-11-04T03:18:17.802Z,26.35
2022-11-04T03:20:48.476Z,28.42
2022-11-04T03:23:15.885Z,23.52
2022-11-04T03:25:45.887Z,23.75
2022-11-04T03:28:25.251Z,23.35
2022-11-04T03:30:56.683Z,23.98
2022-11-04T03:33:32.960Z,21.60
2022-11-04T03:36:00.137Z,24.25
2022-11-04T03:38:27.105Z,22.45
2022-11-04T03:40:54.197Z,20.58
2022-11-04T03:43:24.772Z,25.75
2022-11-04T03:45:54.174Z,36.55
2022-11-04T03:48:22.208Z,22.95
2022-11-04T03:50:51.025Z,26.85
2022-11-04T03:53:22.180Z,26.55
2022-11-04T03:56:12.925Z,28.00
2022-11-04T03:58:45.694Z,34.58
2022-11-04T04:01:33.255Z,27.42
2022-11-04T04:04:04.285Z,28.77
2022-11-04T04:06:35.588Z,23.90
2022-11-04T04:09:08.452Z,35.67
2022-11-04T04:11:43.128Z,26.42
2022-11-04T04:14:37.332Z,25.08
2022-11-04T04:19:37.313Z,36.30
2022-11-04T04:22:09.649Z,31.25
2022-11-04T04:24:58.767Z,38.85
2022-11-04T04:27:32.546Z,26.90
2022-11-04T04:30:02.449Z,30.73
2022-11-04T04:32:35.016Z,32.95
2022-11-04T04:35:20.965Z,40.75
2022-11-04T04:37:48.736Z,32.50
2022-11-04T04:40:38.257Z,29.50
2022-11-04T04:43:24.144Z,37.38
2022-11-04T04:45:53.891Z,90.05
2022-11-04T04:48:22.408Z,38.45
2022-11-04T04:50:52.864Z,29.75
2022-11-04T04:53:19.897Z,43.70
2022-11-04T04:55:46.900Z,31.38
2022-11-04T04:58:13.924Z,49.67
2022-11-04T05:00:41.070Z,31.98
2022-11-04T05:03:08.689Z,35.38
2022-11-04T05:05:37.637Z,40.20
2022-11-04T05:08:06.057Z,46.67
2022-11-04T05:10:33.405Z,33.90
2022-11-04T05:13:19.706Z,38.90
2022-11-04T05:15:46.915Z,34.88
2022-11-04T05:18:13.990Z,36.20
2022-11-04T05:20:42.517Z,35.70
2022-11-04T05:23:12.146Z,33.90
2022-11-04T05:25:42.427Z,44.13
2022-11-04T05:28:09.828Z,30.02
2022-11-04T05:30:37.437Z,27.70
2022-11-04T05:33:05.257Z,31.45
2022-11-04T05:35:32.591Z,34.70
2022-11-04T05:38:01.112Z,27.45
2022-11-04T05:40:28.100Z,27.73
2022-11-04T05:42:57.961Z,28.05
2022-11-04T05:45:24.929Z,22.95
2022-11-04T05:47:57.857Z,22.27
2022-11-04T05:50:24.917Z,20.90
2022-11-04T05:52:52.090Z,25.15
2022-11-04T05:55:20.813Z,26.90
2022-11-04T05:57:47.788Z,25.55
2022-11-04T06:00:15.536Z,24.92
2022-11-04T06:02:42.508Z,22.95
2022-11-04T06:05:09.946Z,22.42
2022-11-04T06:07:36.986Z,26.88
2022-11-04T06:10:08.192Z,24.95
2022-11-04T06:12:36.666Z,27.73
2022-11-04T06:15:04.673Z,24.42
2022-11-04T06:17:31.715Z,28.10
2022-11-04T06:19:58.734Z,39.65
2022-11-04T06:22:25.787Z,36.20
2022-11-04T06:24:52.943Z,25.88
2022-11-04T06:27:19.928Z,34.03
2022-11-04T06:29:48.398Z,30.52
2022-11-04T06:32:18.008Z,30.77
2022-11-04T06:34:45.688Z,28.75
2022-11-04T06:37:12.815Z,32.40
2022-11-04T06:39:39.885Z,25.30
2022-11-04T06:42:07.051Z,24.10
2022-11-04T06:44:34.875Z,29.23
2022-11-04T06:47:03.323Z,27.15
2022-11-04T06:49:30.448Z,25.98
2022-11-04T06:51:57.450Z,24.98
2022-11-04T06:54:24.526Z,27.77
2022-11-04T06:56:51.592Z,24.75
2022-11-04T06:59:20.704Z,28.02
2022-11-04T07:01:49.394Z,26.20
2022-11-04T07:04:18.087Z,23.80
2022-11-04T07:06:45.409Z,27.80
2022-11-04T07:09:14.006Z,28.23
2022-11-04T07:11:42.659Z,25.00
2022-11-04T07:14:10.101Z,24.90
2022-11-04T07:16:37.310Z,27.63
2022-11-04T07:19:04.797Z,25.60
2022-11-04T07:21:33.206Z,25.27
2022-11-04T07:24:01.142Z,19.85
2022-11-04T07:26:28.085Z,23.55
2022-11-04T07:28:55.061Z,28.10
2022-11-04T07:31:22.548Z,34.00
2022-11-04T07:33:51.621Z,25.42
2022-11-04T07:36:19.657Z,24.25
2022-11-04T07:38:48.022Z,27.67
2022-11-04T07:41:16.187Z,19.80
2022-11-04T07:43:43.148Z,21.75
2022-11-04T07:46:12.194Z,17.85
2022-11-04T07:48:39.556Z,20.35
2022-11-04T07:51:08.386Z,17.55
2022-11-04T07:53:36.756Z,19.60
2022-11-04T07:56:06.839Z,17.38
2022-11-04T07:58:34.677Z,17.88
2022-11-04T08:01:03.787Z,17.60
2022-11-04T08:03:30.856Z,15.60
2022-11-04T08:05:58.465Z,17.77
2022-11-04T08:08:25.578Z,20.17
2022-11-04T08:10:53.815Z,17.85
2022-11-04T08:13:22.849Z,30.45
2022-11-04T08:15:49.948Z,19.05
2022-11-04T08:18:17.013Z,19.42
2022-11-04T08:20:50.011Z,18.88
2022-11-04T08:23:17.164Z,20.13
2022-11-04T08:25:44.624Z,19.35
2022-11-04T08:28:17.875Z,17.88
2022-11-04T08:30:57.241Z,16.13
2022-11-04T08:33:24.567Z,21.35
2022-11-04T08:35:51.685Z,18.70
2022-11-04T08:38:18.628Z,22.88
2022-11-04T08:40:46.281Z,19.25
2022-11-04T08:43:13.529Z,22.65
2022-11-04T08:45:41.482Z,14.57
2022-11-04T08:48:10.632Z,18.33
2022-11-04T08:50:37.882Z,15.57
2022-11-04T08:53:05.477Z,19.27
2022-11-04T08:55:33.017Z,22.10
2022-11-04T08:58:00.764Z,19.08
2022-11-04T09:00:28.148Z,32.78
2022-11-04T09:02:55.810Z,17.33
2022-11-04T09:05:24.227Z,22.95
2022-11-04T09:07:51.288Z,19.95
2022-11-04T09:10:18.904Z,20.35
2022-11-04T09:12:45.837Z,23.35
2022-11-04T09:15:13.717Z,20.58
2022-11-04T09:17:40.733Z,16.25
2022-11-04T09:20:08.740Z,20.83
2022-11-04T09:22:39.594Z,16.42
2022-11-04T09:25:10.040Z,23.77
2022-11-04T09:27:37.040Z,24.92
2022-11-04T09:30:04.893Z,24.05
2022-11-04T09:32:31.852Z,20.55
2022-11-04T09:34:58.894Z,24.17
2022-11-04T09:37:25.838Z,24.27
2022-11-04T09:39:54.425Z,22.52
2022-11-04T09:42:43.659Z,34.55
2022-11-04T09:45:22.568Z,20.13
2022-11-04T09:47:52.920Z,18.00
2022-11-04T09:50:24.404Z,29.05
2022-11-04T09:52:55.414Z,17.27
2022-11-04T09:55:28.433Z,17.17
2022-11-04T09:57:58.610Z,11.75
2022-11-04T10:00:29.496Z,12.18
2022-11-04T10:03:06.713Z,17.17
2022-11-04T10:05:53.556Z,13.75
2022-11-04T10:08:38.026Z,14.77
2022-11-04T10:11:12.290Z,12.90
2022-11-04T10:13:53.994Z,12.32
2022-11-04T10:16:35.872Z,21.30
2022-11-04T10:19:14.690Z,16.85
2022-11-04T10:21:49.448Z,13.23
2022-11-04T10:24:24.537Z,18.10
2022-11-04T10:27:00.799Z,19.00
2022-11-04T10:29:34.059Z,13.98
2022-11-04T10:32:06.859Z,11.82
2022-11-04T10:34:38.321Z,12.82
2022-11-04T10:37:10.964Z,16.05
2022-11-04T10:39:43.189Z,9.10
2022-11-04T10:42:14.430Z,14.52
2022-11-04T10:44:42.183Z,20.27
2022-11-04T10:47:21.261Z,9.90
2022-11-04T10:52:50.302Z,15.07
2022-11-04T10:55:29.970Z,47.53
2022-11-04T10:57:59.325Z,12.80
2022-11-04T11:00:36.991Z,11.50
2022-11-04T11:03:22.051Z,19.63
2022-11-04T11:05:49.617Z,15.60
2022-11-04T11:08:28.824Z,14.45
2022-11-04T11:10:56.713Z,16.50
2022-11-04T11:13:35.067Z,11.70
2022-11-04T11:16:08.843Z,16.75
2022-11-04T11:18:38.403Z,22.37
2022-11-04T11:21:11.230Z,17.42
2022-11-04T11:23:43.573Z,17.77
2022-11-04T11:26:14.602Z,15.55
2022-11-04T11:28:52.115Z,16.65
2022-11-04T11:31:26.648Z,16.90
2022-11-04T11:33:56.550Z,17.30
2022-11-04T11:36:26.687Z,28.27
2022-11-04T11:39:01.583Z,84.43
2022-11-04T11:41:31.727Z,51.95
2022-11-04T11:44:04.476Z,29.92
2022-11-04T11:46:34.322Z,25.60
2022-11-04T11:49:03.497Z,17.92
2022-11-04T11:51:33.620Z,19.52
2022-11-04T11:54:13.334Z,21.65
2022-11-04T11:57:12.055Z,19.17
2022-11-04T12:02:47.040Z,18.30
2022-11-04T12:11:12.628Z,111.72
2022-11-04T12:13:44.256Z,20.10
2022-11-04T12:16:27.356Z,14.95
2022-11-04T12:19:14.047Z,12.48
2022-11-04T12:21:47.248Z,21.30
2022-11-04T12:24:28.664Z,29.23
2022-11-04T12:27:06.400Z,21.13
2022-11-04T12:29:48.489Z,25.42
2022-11-04T12:32:26.936Z,14.68
2022-11-04T12:35:10.183Z,16.30
2022-11-04T12:37:45.296Z,15.18
2022-11-04T12:40:20.373Z,11.23
2022-11-04T12:43:02.071Z,14.55
2022-11-04T12:45:37.038Z,14.85
2022-11-04T12:48:10.226Z,18.85
2022-11-04T12:50:56.277Z,16.20
2022-11-04T12:53:55.036Z,23.17
2022-11-04T12:56:26.817Z,34.55
2022-11-04T12:59:30.520Z,16.27
2022-11-04T13:02:01.589Z,21.23
2022-11-04T13:04:39.617Z,17.05
2022-11-04T13:07:12.980Z,22.05
2022-11-04T13:09:44.420Z,20.50
2022-11-04T13:12:16.470Z,21.85
2022-11-04T13:14:47.343Z,15.80
2022-11-04T13:17:18.939Z,22.33
2022-11-04T13:19:51.859Z,24.70
2022-11-04T13:22:23.079Z,17.40
2022-11-04T13:24:54.239Z,29.08
2022-11-04T13:27:24.383Z,23.85
2022-11-04T13:30:01.702Z,22.00
2022-11-04T13:32:33.085Z,21.75
2022-11-04T13:35:08.283Z,21.70
2022-11-04T13:37:39.792Z,25.98
2022-11-04T13:40:14.915Z,23.30
2022-11-04T13:43:22.788Z,21.50
2022-11-04T13:45:52.711Z,22.85
2022-11-04T13:48:22.141Z,19.63
2022-11-04T13:50:59.536Z,15.50
2022-11-04T13:53:45.501Z,18.60
2022-11-04T13:56:33.519Z,19.30
2022-11-04T13:59:06.768Z,24.98
2022-11-04T14:01:35.813Z,24.35
2022-11-04T14:04:18.026Z,27.58
2022-11-04T14:07:04.972Z,31.98
2022-11-04T14:09:50.139Z,27.45
2022-11-04T14:14:55.898Z,39.10
2022-11-04T14:17:59.100Z,27.48
2022-11-04T14:20:29.917Z,36.50
2022-11-04T14:23:00.148Z,33.95
2022-11-04T14:25:31.769Z,20.10
2022-11-04T14:28:01.910Z,24.85
2022-11-04T14:30:35.881Z,25.40
2022-11-04T14:33:06.655Z,35.43
2022-11-04T14:35:34.743Z,30.65
2022-11-04T14:38:18.616Z,28.77
2022-11-04T14:40:49.919Z,24.17
2022-11-04T14:43:31.185Z,32.55
2022-11-04T14:46:00.484Z,39.15
2022-11-04T14:48:28.682Z,24.60
2022-11-04T14:50:57.080Z,38.42
2022-11-04T14:53:29.753Z,32.17
2022-11-04T14:56:15.760Z,28.80
2022-11-04T14:58:56.536Z,28.80
2022-11-04T15:01:26.539Z,36.10
2022-11-04T15:04:12.591Z,33.90
2022-11-04T15:06:54.516Z,43.20
2022-11-04T15:09:25.600Z,39.67
2022-11-04T15:12:17.030Z,26.23
2022-11-04T15:14:44.042Z,39.20
2022-11-04T15:17:18.954Z,30.77
2022-11-04T15:22:15.359Z,35.75
2022-11-04T15:24:44.602Z,35.15
2022-11-04T15:27:15.675Z,45.28
2022-11-04T15:29:53.646Z,41.30
2022-11-04T15:32:20.703Z,43.83
2022-11-04T15:34:48.155Z,39.20
2022-11-04T15:37:17.345Z,41.42
2022-11-04T15:39:48.155Z,42.13
2022-11-04T15:42:37.305Z,33.00
2022-11-04T15:45:26.098Z,38.47
2022-11-04T15:48:23.769Z,41.08
2022-11-04T15:50:55.084Z,30.90
2022-11-04T15:53:22.326Z,35.28
2022-11-04T15:55:51.046Z,39.47
2022-11-04T15:58:19.229Z,60.35
2022-11-04T16:00:52.904Z,79.72
2022-11-04T16:03:22.801Z,161.45
2022-11-04T16:06:08.622Z,164.32
2022-11-04T16:08:35.893Z,165.80
2022-11-04T16:11:13.680Z,159.13
2022-11-04T16:13:40.937Z,160.07
2022-11-04T16:16:21.272Z,157.57
2022-11-04T16:18:52.686Z,66.43
2022-11-04T16:21:26.809Z,48.42
2022-11-04T16:24:01.448Z,50.22
2022-11-04T16:26:33.301Z,47.63
2022-11-04T16:29:02.036Z,40.25
2022-11-04T16:31:37.649Z,44.45
2022-11-04T16:34:09.993Z,42.78
2022-11-04T16:36:36.948Z,45.33
2022-11-04T16:39:08.957Z,50.60
2022-11-04T16:41:39.567Z,49.60
2022-11-04T16:44:20.298Z,35.60
2022-11-04T16:46:47.376Z,43.30
2022-11-04T16:49:15.922Z,47.10
2022-11-04T16:51:43.227Z,52.75
2022-11-04T16:54:10.978Z,41.92
2022-11-04T16:56:39.884Z,46.78
2022-11-04T16:59:06.901Z,46.30
2022-11-04T17:01:34.267Z,42.38
2022-11-04T17:04:04.444Z,48.05
2022-11-04T17:06:31.450Z,53.22
2022-11-04T17:08:58.647Z,51.33
2022-11-04T17:11:25.673Z,50.55
2022-11-04T17:13:54.150Z,48.22
2022-11-04T17:16:21.234Z,46.35
2022-11-04T17:18:48.181Z,41.17
2022-11-04T17:21:17.530Z,44.63
2022-11-04T17:23:44.670Z,36.78
2022-11-04T17:26:12.511Z,36.05
2022-11-04T17:28:40.472Z,41.47
2022-11-04T17:31:12.149Z,41.38
2022-11-04T17:33:39.103Z,44.05
2022-11-04T17:36:07.970Z,38.80
2022-11-04T17:38:34.985Z,42.00
2022-11-04T17:41:20.463Z,43.42
2022-11-04T17:44:02.769Z,39.53
2022-11-04T17:46:38.433Z,35.75
2022-11-04T17:49:09.079Z,34.20
2022-11-04T17:51:36.750Z,40.38
2022-11-04T17:54:04.193Z,36.47
2022-11-04T17:56:31.913Z,36.88
2022-11-04T17:59:01.342Z,34.20
2022-11-04T18:01:28.977Z,49.40
2022-11-04T18:03:58.179Z,41.60
2022-11-04T18:06:26.506Z,41.30
2022-11-04T18:08:54.396Z,35.25
2022-11-04T18:11:40.697Z,38.88
2022-11-04T18:14:12.329Z,33.95
2022-11-04T18:16:43.346Z,33.55
2022-11-04T18:19:11.965Z,40.60
2022-11-04T18:21:39.054Z,35.70
2022-11-04T18:24:09.552Z,35.10
2022-11-04T18:26:37.312Z,36.10
2022-11-04T18:29:06.736Z,34.50
2022-11-04T18:31:36.086Z,41.65
2022-11-04T18:34:07.511Z,43.22
2022-11-04T18:36:38.451Z,47.00
2022-11-04T18:39:06.879Z,51.75
2022-11-04T18:41:34.230Z,39.95
2022-11-04T18:44:02.169Z,45.58
2022-11-04T18:46:29.381Z,36.22
2022-11-04T18:48:56.361Z,41.92
2022-11-04T18:51:24.145Z,38.40
2022-11-04T18:53:52.839Z,41.53
2022-11-04T18:56:22.377Z,37.60
2022-11-04T18:58:49.918Z,37.45
2022-11-04T19:01:20.918Z,48.22
2022-11-04T19:03:48.823Z,44.13
2022-11-04T19:06:19.001Z,44.53
2022-11-04T19:08:47.118Z,38.33
2022-11-04T19:11:18.661Z,47.53
2022-11-04T19:13:50.584Z,36.38
2022-11-04T19:16:17.596Z,39.97
2022-11-04T19:18:44.669Z,38.67
2022-11-04T19:21:12.787Z,36.70
2022-11-04T19:23:39.765Z,38.67
2022-11-04T19:26:08.249Z,35.95
2022-11-04T19:28:47.569Z,32.83
2022-11-04T19:31:17.963Z,32.00
2022-11-04T19:33:45.375Z,32.03
2022-11-04T19:36:14.253Z,36.47
2022-11-04T19:38:41.444Z,41.72
2022-11-04T19:41:32.457Z,34.88
2022-11-04T19:44:02.576Z,42.00
2022-11-04T19:46:29.677Z,38.92
2022-11-04T19:48:56.811Z,43.97
2022-11-04T19:51:29.207Z,31.92
2022-11-04T19:53:58.777Z,42.28
2022-11-04T19:56:25.992Z,40.92
2022-11-04T19:58:53.019Z,35.60
2022-11-04T20:01:22.816Z,35.95
2022-11-04T20:03:51.013Z,37.42
2022-11-04T20:06:18.920Z,36.40
2022-11-04T20:08:46.764Z,39.40
2022-11-04T20:11:14.172Z,43.13
2022-11-04T20:13:44.140Z,37.88
2022-11-04T20:16:17.688Z,41.15
2022-11-04T20:18:48.137Z,39.05
2022-11-04T20:21:15.524Z,38.67
2022-11-04T20:23:44.129Z,39.08
2022-11-04T20:26:20.098Z,44.83
2022-11-04T20:28:47.741Z,42.15
2022-11-04T20:31:20.844Z,41.15
2022-11-04T20:33:50.671Z,43.80
2022-11-04T20:36:20.239Z,45.20
2022-11-04T20:38:47.504Z,42.40
2022-11-04T20:41:18.685Z,41.65
2022-11-04T20:43:47.956Z,44.72
2022-11-04T20:46:16.871Z,30.98
2022-11-04T20:48:43.884Z,53.15
2022-11-04T20:51:14.909Z,35.25
2022-11-04T20:53:42.354Z,45.13
2022-11-04T20:56:11.982Z,39.58
2022-11-04T20:58:41.149Z,40.85
2022-11-04T21:01:10.348Z,33.45
2022-11-04T21:03:37.335Z,39.22
2022-11-04T21:06:04.825Z,41.38
2022-11-04T21:08:35.512Z,41.72
2022-11-04T21:11:03.903Z,42.85
2022-11-04T21:13:31.986Z,40.53
2022-11-04T21:16:01.088Z,47.72
2022-11-04T21:18:28.315Z,42.33
2022-11-04T21:20:55.528Z,41.42
2022-11-04T21:23:22.523Z,67.60
2022-11-04T21:25:52.593Z,63.17
2022-11-04T21:28:19.692Z,52.70
2022-11-04T21:30:48.665Z,43.25
2022-11-04T21:33:16.606Z,41.58
2022-11-04T21:35:43.718Z,47.95
2022-11-04T21:38:14.036Z,51.88
2022-11-04T21:40:41.249Z,47.90
2022-11-04T21:43:12.949Z,51.38
2022-11-04T21:45:39.977Z,47.92
2022-11-04T21:48:07.391Z,50.25
2022-11-04T21:50:34.501Z,41.55
2022-11-04T21:53:01.558Z,42.35
2022-11-04T21:55:28.656Z,37.65
2022-11-04T21:57:55.717Z,41.45
2022-11-04T22:00:24.290Z,36.53
2022-11-04T22:02:51.287Z,36.85
2022-11-04T22:05:18.604Z,31.60
2022-11-04T22:08:04.090Z,33.95
2022-11-04T22:10:31.081Z,35.22
2022-11-04T22:12:58.048Z,40.28
2022-11-04T22:15:45.082Z,39.67
2022-11-04T22:18:12.084Z,40.15
2022-11-04T22:20:39.084Z,39.10
2022-11-04T22:23:06.163Z,35.13
2022-11-04T22:25:33.206Z,40.38
2022-11-04T22:28:00.163Z,34.63
2022-11-04T22:30:28.671Z,36.28
2022-11-04T22:32:55.678Z,42.15
2022-11-04T22:35:22.743Z,32.10
2022-11-04T22:37:49.845Z,34.55
2022-11-04T22:40:16.836Z,35.33
2022-11-04T22:42:43.917Z,43.95
2022-11-04T22:45:16.380Z,34.28
2022-11-04T22:47:45.242Z,34.60
2022-11-04T22:50:12.239Z,30.98
2022-11-04T22:52:39.228Z,33.63
2022-11-04T22:55:06.742Z,35.40
2022-11-04T22:57:33.765Z,27.90
2022-11-04T23:00:01.541Z,43.28
2022-11-04T23:02:35.441Z,32.20
2022-11-04T23:07:32.492Z,28.67
2022-11-04T23:10:18.317Z,35.42
2022-11-04T23:13:03.748Z,31.88
2022-11-04T23:15:49.473Z,40.63
2022-11-04T23:21:21.572Z,31.98
2022-11-04T23:24:06.817Z,39.35
2022-11-04T23:26:33.819Z,33.42
2022-11-04T23:29:18.988Z,29.20
2022-11-04T23:31:45.942Z,33.58
2022-11-04T23:34:31.865Z,38.88
2022-11-04T23:37:12.216Z,38.28
2022-11-04T23:39:39.716Z,33.38
2022-11-04T23:42:18.971Z,40.00
2022-11-04T23:45:06.704Z,32.70
2022-11-04T23:47:54.465Z,35.63
2022-11-04T23:50:41.080Z,33.40
2022-11-04T23:53:30.359Z,28.55
2022-11-04T23:56:15.896Z,33.15
2022-11-04T23:59:01.628Z,31.63
